Tropical Cyclones
[Index]
Main Index Home Page Stock Weather Photos Extreme Storms Discussion Storm News and Storm Chasing Reports Tropical Cyclones / Hurricanes / Typhoons Weather Data and Links Wild Fires / Bushfires Weather Observation Techniques Weather Picture Catalogue Tornado Pictures and Reports Stock Video Footage and DVDs for sale
Season 2014-2015 Tropical Cyclone 201515 Track Map
Season 2014-2015 Summaries (Operational Data): [AU] [SIO] [SPAC] [SH]
<<- Previous TC | 2014-2015 Season | Next TC ->>

click for intensity scale information  Lat/long Grid: Show Hide

 Date Labels: Show Hide

Operational Tropical Cyclone Data : JTWC Advisories

Name: 201515
Number: 1515

03 Mar 2015 00:00 UTC to 10 Mar 2015 18:00 UTC

    date/time    lat    long     hPa   cat  kts
2015-03-03 00   15.4    41.5    1006         15          
2015-03-03 06   15.0    41.6    1006         15          
2015-03-03 12   14.8    41.5    1006         15          
2015-03-03 18   14.3    41.4    1007         20          
2015-03-04 00   14.0    41.6    1004         25          
2015-03-04 06   14.0    41.0    1004         25          
2015-03-04 12   14.3    42.1    1000         30          
2015-03-04 18   14.7    42.1    1000         30          
2015-03-05 00   15.0    42.2    1000         30          
2015-03-05 06   15.4    42.3    1000         30          
2015-03-05 12   15.8    42.2     996    1    35          
2015-03-05 18   16.2    42.2     996    1    35          
2015-03-06 00   16.5    42.1     996    1    35          
2015-03-06 06   16.7    41.8     996    1    35          
2015-03-06 12   16.8    41.6     996    1    35          
2015-03-06 18   16.7    41.4     996    1    35          
2015-03-07 00   16.4    41.2     996    1    35          
2015-03-07 06   16.4    41.0    1000         30          
2015-03-07 12   16.5    40.9    1004         25          
2015-03-07 18   16.9    41.1    1004         25          
2015-03-08 00   17.1    41.7    1004         25          
2015-03-08 06   17.1    42.3    1004         25          
2015-03-08 12   17.9    43.4    1004         25          
2015-03-08 18   18.2    44.4    1007         20          
2015-03-09 00   18.9    45.1    1007         20          
2015-03-09 06   19.7    45.6    1007         20          
2015-03-09 12   20.4    46.0    1010         15          
2015-03-09 18   20.8    46.6    1010         15          
2015-03-10 00   20.9    47.8    1007         20          
2015-03-10 06   20.5    50.4    1007         20          
2015-03-10 12   20.9    52.1    1007         20          
2015-03-10 18   21.3    53.0    1007         20          
Winds are 10-min average.

Tropical cyclone tracks developed by Michael Bath using operational warnings and advisories and Google Maps.


[Australian Severe Weather index] [Copyright Notice] [Email Contacts] [Search This Site] [Privacy Policy]
Document: tropical_cyclone_201515.htm Updated: 2 May 2017